sensor_id;sensor_type;location;lat;lon;timestamp;temperature;humidity
7494;DHT22;3788;49.902;8.590;2023-03-25T00:01:34;10.30;99.90
7494;DHT22;3788;49.902;8.590;2023-03-25T00:04:02;10.30;99.90
7494;DHT22;3788;49.902;8.590;2023-03-25T00:06:31;10.30;99.90
7494;DHT22;3788;49.902;8.590;2023-03-25T00:08:59;10.30;99.90
7494;DHT22;3788;49.902;8.590;2023-03-25T00:11:26;10.10;99.90
7494;DHT22;3788;49.902;8.590;2023-03-25T00:13:54;10.10;99.90
7494;DHT22;3788;49.902;8.590;2023-03-25T00:16:20;10.00;99.90
7494;DHT22;3788;49.902;8.590;2023-03-25T00:18:48;9.90;99.90
7494;DHT22;3788;49.902;8.590;2023-03-25T00:21:16;9.90;99.90
7494;DHT22;3788;49.902;8.590;2023-03-25T00:23:44;9.80;99.90
7494;DHT22;3788;49.902;8.590;2023-03-25T00:26:11;9.80;99.90
7494;DHT22;3788;49.902;8.590;2023-03-25T00:28:38;9.80;99.90
7494;DHT22;3788;49.902;8.590;2023-03-25T00:31:09;9.80;99.90
7494;DHT22;3788;49.902;8.590;2023-03-25T00:33:36;9.80;99.90
7494;DHT22;3788;49.902;8.590;2023-03-25T00:36:06;9.80;99.90
7494;DHT22;3788;49.902;8.590;2023-03-25T00:38:34;9.90;99.90
7494;DHT22;3788;49.902;8.590;2023-03-25T00:41:11;9.90;99.90
7494;DHT22;3788;49.902;8.590;2023-03-25T00:43:38;9.90;99.90
7494;DHT22;3788;49.902;8.590;2023-03-25T00:46:05;10.00;99.90
7494;DHT22;3788;49.902;8.590;2023-03-25T00:48:31;10.00;99.90
7494;DHT22;3788;49.902;8.590;2023-03-25T00:50:59;10.00;99.90
7494;DHT22;3788;49.902;8.590;2023-03-25T00:53:31;10.00;99.90
7494;DHT22;3788;49.902;8.590;2023-03-25T00:55:58;10.10;99.90
7494;DHT22;3788;49.902;8.590;2023-03-25T00:58:27;10.10;99.90
7494;DHT22;3788;49.902;8.590;2023-03-25T01:00:54;10.10;99.90
7494;DHT22;3788;49.902;8.590;2023-03-25T01:03:21;10.10;99.90
7494;DHT22;3788;49.902;8.590;2023-03-25T01:05:48;10.10;99.90
7494;DHT22;3788;49.902;8.590;2023-03-25T01:08:15;10.00;99.90
7494;DHT22;3788;49.902;8.590;2023-03-25T01:10:42;10.00;99.90
7494;DHT22;3788;49.902;8.590;2023-03-25T01:13:09;10.00;99.90
7494;DHT22;3788;49.902;8.590;2023-03-25T01:15:38;10.00;99.90
7494;DHT22;3788;49.902;8.590;2023-03-25T01:18:05;10.00;99.90
7494;DHT22;3788;49.902;8.590;2023-03-25T01:20:31;9.90;99.90
7494;DHT22;3788;49.902;8.590;2023-03-25T01:22:58;9.90;99.90
7494;DHT22;3788;49.902;8.590;2023-03-25T01:25:25;9.90;99.90
7494;DHT22;3788;49.902;8.590;2023-03-25T01:27:52;9.90;99.90
7494;DHT22;3788;49.902;8.590;2023-03-25T01:30:18;9.90;99.90
7494;DHT22;3788;49.902;8.590;2023-03-25T01:32:46;9.90;99.90
7494;DHT22;3788;49.902;8.590;2023-03-25T01:35:13;9.90;99.90
7494;DHT22;3788;49.902;8.590;2023-03-25T01:37:40;9.80;99.90
7494;DHT22;3788;49.902;8.590;2023-03-25T01:40:16;9.90;99.90
7494;DHT22;3788;49.902;8.590;2023-03-25T01:42:43;9.80;99.90
7494;DHT22;3788;49.902;8.590;2023-03-25T01:45:28;9.90;99.90
7494;DHT22;3788;49.902;8.590;2023-03-25T01:48:08;9.90;99.90
7494;DHT22;3788;49.902;8.590;2023-03-25T01:50:39;10.00;99.90
7494;DHT22;3788;49.902;8.590;2023-03-25T01:53:07;10.00;99.90
7494;DHT22;3788;49.902;8.590;2023-03-25T01:55:37;10.10;99.90
7494;DHT22;3788;49.902;8.590;2023-03-25T01:58:07;10.10;99.90
7494;DHT22;3788;49.902;8.590;2023-03-25T02:00:37;10.10;99.90
7494;DHT22;3788;49.902;8.590;2023-03-25T02:03:06;10.10;99.90
7494;DHT22;3788;49.902;8.590;2023-03-25T02:05:38;10.00;99.90
7494;DHT22;3788;49.902;8.590;2023-03-25T02:08:08;10.00;99.90
7494;DHT22;3788;49.902;8.590;2023-03-25T02:10:35;10.00;99.90
7494;DHT22;3788;49.902;8.590;2023-03-25T02:13:02;10.00;99.90
7494;DHT22;3788;49.902;8.590;2023-03-25T02:15:39;10.00;99.90
7494;DHT22;3788;49.902;8.590;2023-03-25T02:18:18;9.90;99.90
7494;DHT22;3788;49.902;8.590;2023-03-25T02:21:20;9.90;99.90
7494;DHT22;3788;49.902;8.590;2023-03-25T02:24:22;9.90;99.90
7494;DHT22;3788;49.902;8.590;2023-03-25T02:27:17;9.80;99.90
7494;DHT22;3788;49.902;8.590;2023-03-25T02:30:03;9.80;99.90
7494;DHT22;3788;49.902;8.590;2023-03-25T02:32:52;9.80;99.90
7494;DHT22;3788;49.902;8.590;2023-03-25T02:35:33;9.90;99.90
7494;DHT22;3788;49.902;8.590;2023-03-25T02:38:18;9.80;99.90
7494;DHT22;3788;49.902;8.590;2023-03-25T02:40:54;9.80;99.90
7494;DHT22;3788;49.902;8.590;2023-03-25T02:43:26;9.80;99.90
7494;DHT22;3788;49.902;8.590;2023-03-25T02:45:56;9.80;99.90
7494;DHT22;3788;49.902;8.590;2023-03-25T02:48:28;9.80;99.90
7494;DHT22;3788;49.902;8.590;2023-03-25T02:51:00;9.70;99.90
7494;DHT22;3788;49.902;8.590;2023-03-25T02:53:33;9.70;99.90
7494;DHT22;3788;49.902;8.590;2023-03-25T02:56:04;9.80;99.90
7494;DHT22;3788;49.902;8.590;2023-03-25T02:58:33;9.80;99.90
7494;DHT22;3788;49.902;8.590;2023-03-25T03:01:00;9.80;99.90
7494;DHT22;3788;49.902;8.590;2023-03-25T03:03:27;9.80;99.90
7494;DHT22;3788;49.902;8.590;2023-03-25T03:05:56;9.80;99.90
7494;DHT22;3788;49.902;8.590;2023-03-25T03:08:44;9.70;99.90
7494;DHT22;3788;49.902;8.590;2023-03-25T03:11:16;9.70;99.90
7494;DHT22;3788;49.902;8.590;2023-03-25T03:13:59;9.70;99.90
7494;DHT22;3788;49.902;8.590;2023-03-25T03:16:39;9.60;99.90
7494;DHT22;3788;49.902;8.590;2023-03-25T03:19:20;9.60;99.90
7494;DHT22;3788;49.902;8.590;2023-03-25T03:21:55;9.50;99.90
7494;DHT22;3788;49.902;8.590;2023-03-25T03:24:26;9.40;99.90
7494;DHT22;3788;49.902;8.590;2023-03-25T03:26:57;9.40;99.90
7494;DHT22;3788;49.902;8.590;2023-03-25T03:29:27;9.40;99.90
7494;DHT22;3788;49.902;8.590;2023-03-25T03:31:59;9.30;99.90
7494;DHT22;3788;49.902;8.590;2023-03-25T03:34:30;9.20;99.90
7494;DHT22;3788;49.902;8.590;2023-03-25T03:37:02;9.20;99.90
7494;DHT22;3788;49.902;8.590;2023-03-25T03:39:33;9.20;99.90
7494;DHT22;3788;49.902;8.590;2023-03-25T03:42:06;9.20;99.90
7494;DHT22;3788;49.902;8.590;2023-03-25T03:44:37;9.20;99.90
7494;DHT22;3788;49.902;8.590;2023-03-25T03:47:09;9.20;99.90
7494;DHT22;3788;49.902;8.590;2023-03-25T03:49:42;9.20;99.90
7494;DHT22;3788;49.902;8.590;2023-03-25T03:52:13;9.20;99.90
7494;DHT22;3788;49.902;8.590;2023-03-25T03:54:44;9.20;99.90
7494;DHT22;3788;49.902;8.590;2023-03-25T03:57:16;9.20;99.90
7494;DHT22;3788;49.902;8.590;2023-03-25T03:59:50;9.20;99.90
7494;DHT22;3788;49.902;8.590;2023-03-25T04:02:22;9.20;99.90
7494;DHT22;3788;49.902;8.590;2023-03-25T04:04:51;9.20;99.90
7494;DHT22;3788;49.902;8.590;2023-03-25T04:07:21;9.20;99.90
7494;DHT22;3788;49.902;8.590;2023-03-25T04:09:56;9.20;99.90
7494;DHT22;3788;49.902;8.590;2023-03-25T04:12:28;9.30;99.90
7494;DHT22;3788;49.902;8.590;2023-03-25T04:14:58;9.30;99.90
7494;DHT22;3788;49.902;8.590;2023-03-25T04:17:25;9.30;99.90
7494;DHT22;3788;49.902;8.590;2023-03-25T04:19:54;9.30;99.90
7494;DHT22;3788;49.902;8.590;2023-03-25T04:22:21;9.20;99.90
7494;DHT22;3788;49.902;8.590;2023-03-25T04:24:49;9.30;99.90
7494;DHT22;3788;49.902;8.590;2023-03-25T04:27:18;9.30;99.90
7494;DHT22;3788;49.902;8.590;2023-03-25T04:29:47;9.30;99.90
7494;DHT22;3788;49.902;8.590;2023-03-25T04:32:16;9.30;99.90
7494;DHT22;3788;49.902;8.590;2023-03-25T04:34:43;9.30;99.90
7494;DHT22;3788;49.902;8.590;2023-03-25T04:37:11;9.40;99.90
7494;DHT22;3788;49.902;8.590;2023-03-25T04:39:38;9.40;99.90
7494;DHT22;3788;49.902;8.590;2023-03-25T04:42:05;9.40;99.90
7494;DHT22;3788;49.902;8.590;2023-03-25T04:44:34;9.50;99.90
7494;DHT22;3788;49.902;8.590;2023-03-25T04:47:04;9.50;99.90
7494;DHT22;3788;49.902;8.590;2023-03-25T04:49:32;9.50;99.90
7494;DHT22;3788;49.902;8.590;2023-03-25T04:51:59;9.60;99.90
7494;DHT22;3788;49.902;8.590;2023-03-25T04:54:28;9.60;99.90
7494;DHT22;3788;49.902;8.590;2023-03-25T04:56:55;9.60;99.90
7494;DHT22;3788;49.902;8.590;2023-03-25T04:59:23;9.50;99.90
7494;DHT22;3788;49.902;8.590;2023-03-25T05:01:52;9.50;99.90
7494;DHT22;3788;49.902;8.590;2023-03-25T05:04:19;9.50;99.90
7494;DHT22;3788;49.902;8.590;2023-03-25T05:06:47;9.50;99.90
7494;DHT22;3788;49.902;8.590;2023-03-25T05:09:16;9.50;99.90
7494;DHT22;3788;49.902;8.590;2023-03-25T05:11:45;9.50;99.90
7494;DHT22;3788;49.902;8.590;2023-03-25T05:14:13;9.50;99.90
7494;DHT22;3788;49.902;8.590;2023-03-25T05:16:41;9.50;99.90
7494;DHT22;3788;49.902;8.590;2023-03-25T05:19:10;9.50;99.90
7494;DHT22;3788;49.902;8.590;2023-03-25T05:21:38;9.50;99.90
7494;DHT22;3788;49.902;8.590;2023-03-25T05:24:07;9.50;99.90
7494;DHT22;3788;49.902;8.590;2023-03-25T05:26:35;9.40;99.90
7494;DHT22;3788;49.902;8.590;2023-03-25T05:29:02;9.50;99.90
7494;DHT22;3788;49.902;8.590;2023-03-25T05:31:30;9.50;99.90
7494;DHT22;3788;49.902;8.590;2023-03-25T05:33:56;9.50;99.90
7494;DHT22;3788;49.902;8.590;2023-03-25T05:36:24;9.50;99.90
7494;DHT22;3788;49.902;8.590;2023-03-25T05:38:52;9.40;99.90
7494;DHT22;3788;49.902;8.590;2023-03-25T05:41:20;9.40;99.90
7494;DHT22;3788;49.902;8.590;2023-03-25T05:43:56;9.40;99.90
7494;DHT22;3788;49.902;8.590;2023-03-25T05:46:25;9.40;99.90
7494;DHT22;3788;49.902;8.590;2023-03-25T05:48:52;9.40;99.90
7494;DHT22;3788;49.902;8.590;2023-03-25T05:51:20;9.30;99.90
7494;DHT22;3788;49.902;8.590;2023-03-25T05:53:51;9.30;99.90
7494;DHT22;3788;49.902;8.590;2023-03-25T05:56:21;9.20;99.90
7494;DHT22;3788;49.902;8.590;2023-03-25T05:58:50;9.20;99.90
7494;DHT22;3788;49.902;8.590;2023-03-25T06:01:19;9.20;99.90
7494;DHT22;3788;49.902;8.590;2023-03-25T06:03:47;9.20;99.90
7494;DHT22;3788;49.902;8.590;2023-03-25T06:06:14;9.10;99.90
7494;DHT22;3788;49.902;8.590;2023-03-25T06:08:43;9.00;99.90
7494;DHT22;3788;49.902;8.590;2023-03-25T06:11:11;9.00;99.90
7494;DHT22;3788;49.902;8.590;2023-03-25T06:13:39;9.00;99.90
7494;DHT22;3788;49.902;8.590;2023-03-25T06:16:07;9.00;99.90
7494;DHT22;3788;49.902;8.590;2023-03-25T06:18:34;9.00;99.90
7494;DHT22;3788;49.902;8.590;2023-03-25T06:21:01;9.00;99.90
7494;DHT22;3788;49.902;8.590;2023-03-25T06:23:28;9.00;99.90
7494;DHT22;3788;49.902;8.590;2023-03-25T06:25:54;9.00;99.90
7494;DHT22;3788;49.902;8.590;2023-03-25T06:28:24;9.10;99.90
7494;DHT22;3788;49.902;8.590;2023-03-25T06:30:51;9.10;99.90
7494;DHT22;3788;49.902;8.590;2023-03-25T06:33:17;9.10;99.90
7494;DHT22;3788;49.902;8.590;2023-03-25T06:35:46;9.20;99.90
7494;DHT22;3788;49.902;8.590;2023-03-25T06:38:18;9.30;99.90
7494;DHT22;3788;49.902;8.590;2023-03-25T06:40:46;9.40;99.90
7494;DHT22;3788;49.902;8.590;2023-03-25T06:43:13;9.50;99.90
7494;DHT22;3788;49.902;8.590;2023-03-25T06:45:41;9.60;99.90
7494;DHT22;3788;49.902;8.590;2023-03-25T06:48:08;9.80;99.90
7494;DHT22;3788;49.902;8.590;2023-03-25T06:50:35;9.90;99.90
7494;DHT22;3788;49.902;8.590;2023-03-25T06:53:01;10.00;99.90
7494;DHT22;3788;49.902;8.590;2023-03-25T06:55:28;10.10;99.90
7494;DHT22;3788;49.902;8.590;2023-03-25T06:57:55;10.10;99.90
7494;DHT22;3788;49.902;8.590;2023-03-25T07:00:22;10.10;99.90
7494;DHT22;3788;49.902;8.590;2023-03-25T07:02:52;10.20;99.90
7494;DHT22;3788;49.902;8.590;2023-03-25T07:05:19;10.20;99.90
7494;DHT22;3788;49.902;8.590;2023-03-25T07:07:46;10.20;99.90
7494;DHT22;3788;49.902;8.590;2023-03-25T07:10:13;10.20;99.90
7494;DHT22;3788;49.902;8.590;2023-03-25T07:12:40;10.20;99.90
7494;DHT22;3788;49.902;8.590;2023-03-25T07:15:07;10.30;99.90
7494;DHT22;3788;49.902;8.590;2023-03-25T07:17:34;10.20;99.90
7494;DHT22;3788;49.902;8.590;2023-03-25T07:20:02;10.40;99.90
7494;DHT22;3788;49.902;8.590;2023-03-25T07:22:29;11.10;99.90
7494;DHT22;3788;49.902;8.590;2023-03-25T07:24:56;11.80;99.70
7494;DHT22;3788;49.902;8.590;2023-03-25T07:27:23;12.50;98.30
7494;DHT22;3788;49.902;8.590;2023-03-25T07:29:50;12.80;96.70
7494;DHT22;3788;49.902;8.590;2023-03-25T07:32:17;13.30;96.20
7494;DHT22;3788;49.902;8.590;2023-03-25T07:34:44;13.50;95.60
7494;DHT22;3788;49.902;8.590;2023-03-25T07:37:12;13.90;95.10
7494;DHT22;3788;49.902;8.590;2023-03-25T07:39:38;14.10;94.50
7494;DHT22;3788;49.902;8.590;2023-03-25T07:42:05;14.60;93.70
7494;DHT22;3788;49.902;8.590;2023-03-25T07:44:32;15.00;91.90
7494;DHT22;3788;49.902;8.590;2023-03-25T07:46:58;15.20;91.60
7494;DHT22;3788;49.902;8.590;2023-03-25T07:49:25;15.20;90.80
7494;DHT22;3788;49.902;8.590;2023-03-25T07:51:52;15.50;91.10
7494;DHT22;3788;49.902;8.590;2023-03-25T07:54:20;15.90;90.10
7494;DHT22;3788;49.902;8.590;2023-03-25T07:56:48;16.00;89.40
7494;DHT22;3788;49.902;8.590;2023-03-25T07:59:15;15.90;89.10
7494;DHT22;3788;49.902;8.590;2023-03-25T08:01:42;15.70;89.30
7494;DHT22;3788;49.902;8.590;2023-03-25T08:04:08;15.40;89.80
7494;DHT22;3788;49.902;8.590;2023-03-25T08:06:37;15.00;89.60
7494;DHT22;3788;49.902;8.590;2023-03-25T08:09:04;14.60;90.40
7494;DHT22;3788;49.902;8.590;2023-03-25T08:11:32;14.30;91.00
7494;DHT22;3788;49.902;8.590;2023-03-25T08:13:59;14.30;91.30
7494;DHT22;3788;49.902;8.590;2023-03-25T08:16:26;14.20;91.20
7494;DHT22;3788;49.902;8.590;2023-03-25T08:18:53;14.00;91.00
7494;DHT22;3788;49.902;8.590;2023-03-25T08:21:20;13.70;91.10
7494;DHT22;3788;49.902;8.590;2023-03-25T08:23:50;13.90;91.40
7494;DHT22;3788;49.902;8.590;2023-03-25T08:26:16;14.50;90.90
7494;DHT22;3788;49.902;8.590;2023-03-25T08:28:45;14.80;90.10
7494;DHT22;3788;49.902;8.590;2023-03-25T08:31:12;14.90;90.20
7494;DHT22;3788;49.902;8.590;2023-03-25T08:33:39;14.70;89.30
7494;DHT22;3788;49.902;8.590;2023-03-25T08:36:08;14.20;89.30
7494;DHT22;3788;49.902;8.590;2023-03-25T08:38:38;13.80;90.40
7494;DHT22;3788;49.902;8.590;2023-03-25T08:41:05;13.60;91.30
7494;DHT22;3788;49.902;8.590;2023-03-25T08:43:32;13.90;91.30
7494;DHT22;3788;49.902;8.590;2023-03-25T08:46:00;14.70;90.40
7494;DHT22;3788;49.902;8.590;2023-03-25T08:48:26;15.40;89.10
7494;DHT22;3788;49.902;8.590;2023-03-25T08:50:53;15.70;86.50
7494;DHT22;3788;49.902;8.590;2023-03-25T08:53:20;15.60;85.80
7494;DHT22;3788;49.902;8.590;2023-03-25T08:55:49;15.10;86.50
7494;DHT22;3788;49.902;8.590;2023-03-25T08:58:17;14.60;89.20
7494;DHT22;3788;49.902;8.590;2023-03-25T09:00:44;14.00;90.80
7494;DHT22;3788;49.902;8.590;2023-03-25T09:03:12;13.70;91.50
7494;DHT22;3788;49.902;8.590;2023-03-25T09:05:39;13.40;91.20
7494;DHT22;3788;49.902;8.590;2023-03-25T09:08:06;13.20;91.80
7494;DHT22;3788;49.902;8.590;2023-03-25T09:10:33;13.10;92.10
7494;DHT22;3788;49.902;8.590;2023-03-25T09:12:59;13.10;92.50
7494;DHT22;3788;49.902;8.590;2023-03-25T09:15:26;13.10;92.40
7494;DHT22;3788;49.902;8.590;2023-03-25T09:17:53;13.10;92.40
7494;DHT22;3788;49.902;8.590;2023-03-25T09:20:21;13.00;93.00
7494;DHT22;3788;49.902;8.590;2023-03-25T09:22:47;12.90;92.80
7494;DHT22;3788;49.902;8.590;2023-03-25T09:25:14;12.80;92.80
7494;DHT22;3788;49.902;8.590;2023-03-25T09:27:41;12.70;93.00
7494;DHT22;3788;49.902;8.590;2023-03-25T09:30:08;12.60;93.60
7494;DHT22;3788;49.902;8.590;2023-03-25T09:32:35;12.50;93.50
7494;DHT22;3788;49.902;8.590;2023-03-25T09:35:03;12.50;93.90
7494;DHT22;3788;49.902;8.590;2023-03-25T09:37:31;12.40;93.90
7494;DHT22;3788;49.902;8.590;2023-03-25T09:39:58;12.50;93.90
7494;DHT22;3788;49.902;8.590;2023-03-25T09:42:34;12.50;95.00
7494;DHT22;3788;49.902;8.590;2023-03-25T09:45:12;12.40;95.90
7494;DHT22;3788;49.902;8.590;2023-03-25T09:47:49;12.20;95.90
7494;DHT22;3788;49.902;8.590;2023-03-25T09:50:18;12.10;96.80
7494;DHT22;3788;49.902;8.590;2023-03-25T09:52:52;12.10;96.20
7494;DHT22;3788;49.902;8.590;2023-03-25T09:55:23;12.00;98.90
7494;DHT22;3788;49.902;8.590;2023-03-25T09:57:56;11.80;99.90
7494;DHT22;3788;49.902;8.590;2023-03-25T10:00:24;11.80;99.90
7494;DHT22;3788;49.902;8.590;2023-03-25T10:02:57;11.80;99.90
7494;DHT22;3788;49.902;8.590;2023-03-25T10:05:38;11.80;99.90
7494;DHT22;3788;49.902;8.590;2023-03-25T10:08:17;11.70;99.90
7494;DHT22;3788;49.902;8.590;2023-03-25T10:10:54;11.70;99.90
7494;DHT22;3788;49.902;8.590;2023-03-25T10:13:33;11.80;99.90
7494;DHT22;3788;49.902;8.590;2023-03-25T10:16:09;11.90;99.90
7494;DHT22;3788;49.902;8.590;2023-03-25T10:18:50;11.90;99.30
7494;DHT22;3788;49.902;8.590;2023-03-25T10:21:26;11.70;98.30
7494;DHT22;3788;49.902;8.590;2023-03-25T10:24:03;11.20;97.10
7494;DHT22;3788;49.902;8.590;2023-03-25T10:26:39;10.60;98.80
7494;DHT22;3788;49.902;8.590;2023-03-25T10:29:09;10.20;99.90
7494;DHT22;3788;49.902;8.590;2023-03-25T10:31:45;9.90;99.90
7494;DHT22;3788;49.902;8.590;2023-03-25T10:34:17;9.70;99.90
7494;DHT22;3788;49.902;8.590;2023-03-25T10:36:46;9.70;99.90
7494;DHT22;3788;49.902;8.590;2023-03-25T10:39:19;10.00;99.90
7494;DHT22;3788;49.902;8.590;2023-03-25T10:41:50;10.60;99.90
7494;DHT22;3788;49.902;8.590;2023-03-25T10:44:20;11.00;99.90
7494;DHT22;3788;49.902;8.590;2023-03-25T10:46:51;11.30;99.90
7494;DHT22;3788;49.902;8.590;2023-03-25T10:49:21;11.50;99.90
7494;DHT22;3788;49.902;8.590;2023-03-25T10:51:50;11.70;99.90
7494;DHT22;3788;49.902;8.590;2023-03-25T10:54:20;11.80;99.90
7494;DHT22;3788;49.902;8.590;2023-03-25T10:56:50;11.90;99.90
7494;DHT22;3788;49.902;8.590;2023-03-25T10:59:21;12.20;99.90
7494;DHT22;3788;49.902;8.590;2023-03-25T11:01:50;12.40;99.80
7494;DHT22;3788;49.902;8.590;2023-03-25T11:04:20;12.60;99.80
7494;DHT22;3788;49.902;8.590;2023-03-25T11:06:51;12.90;99.90
7494;DHT22;3788;49.902;8.590;2023-03-25T11:09:24;13.20;99.10
7494;DHT22;3788;49.902;8.590;2023-03-25T11:11:53;13.30;98.40
7494;DHT22;3788;49.902;8.590;2023-03-25T11:14:22;13.30;98.90
7494;DHT22;3788;49.902;8.590;2023-03-25T11:16:54;13.40;98.20
7494;DHT22;3788;49.902;8.590;2023-03-25T11:19:25;13.50;97.10
7494;DHT22;3788;49.902;8.590;2023-03-25T11:21:56;13.50;97.30
7494;DHT22;3788;49.902;8.590;2023-03-25T11:24:30;13.50;97.10
7494;DHT22;3788;49.902;8.590;2023-03-25T11:26:57;13.60;97.10
7494;DHT22;3788;49.902;8.590;2023-03-25T11:29:25;13.60;96.20
7494;DHT22;3788;49.902;8.590;2023-03-25T11:31:58;13.60;94.60
7494;DHT22;3788;49.902;8.590;2023-03-25T11:34:30;13.60;94.10
7494;DHT22;3788;49.902;8.590;2023-03-25T11:37:00;13.50;94.90
7494;DHT22;3788;49.902;8.590;2023-03-25T11:39:32;13.50;93.90
7494;DHT22;3788;49.902;8.590;2023-03-25T11:42:13;13.40;93.60
7494;DHT22;3788;49.902;8.590;2023-03-25T11:44:49;13.40;93.50
7494;DHT22;3788;49.902;8.590;2023-03-25T11:47:21;13.30;93.20
7494;DHT22;3788;49.902;8.590;2023-03-25T11:49:48;13.20;94.00
7494;DHT22;3788;49.902;8.590;2023-03-25T11:52:20;13.30;94.80
7494;DHT22;3788;49.902;8.590;2023-03-25T11:54:52;13.50;94.80
7494;DHT22;3788;49.902;8.590;2023-03-25T11:57:22;13.70;94.80
7494;DHT22;3788;49.902;8.590;2023-03-25T11:59:59;13.90;94.80
7494;DHT22;3788;49.902;8.590;2023-03-25T12:02:28;14.00;94.70
7494;DHT22;3788;49.902;8.590;2023-03-25T12:04:59;14.20;93.90
7494;DHT22;3788;49.902;8.590;2023-03-25T12:07:27;14.20;93.60
7494;DHT22;3788;49.902;8.590;2023-03-25T12:09:57;14.20;92.60
7494;DHT22;3788;49.902;8.590;2023-03-25T12:12:40;14.20;92.90
7494;DHT22;3788;49.902;8.590;2023-03-25T12:15:18;14.30;93.20
7494;DHT22;3788;49.902;8.590;2023-03-25T12:17:59;14.40;92.80
7494;DHT22;3788;49.902;8.590;2023-03-25T12:20:31;14.50;92.70
7494;DHT22;3788;49.902;8.590;2023-03-25T12:23:06;14.60;92.60
7494;DHT22;3788;49.902;8.590;2023-03-25T12:25:49;14.60;92.70
7494;DHT22;3788;49.902;8.590;2023-03-25T12:28:37;14.60;92.00
7494;DHT22;3788;49.902;8.590;2023-03-25T12:31:19;14.60;92.40
7494;DHT22;3788;49.902;8.590;2023-03-25T12:33:55;14.70;92.10
7494;DHT22;3788;49.902;8.590;2023-03-25T12:36:33;14.80;91.40
7494;DHT22;3788;49.902;8.590;2023-03-25T12:39:22;14.80;91.60
7494;DHT22;3788;49.902;8.590;2023-03-25T12:42:00;14.70;90.90
7494;DHT22;3788;49.902;8.590;2023-03-25T12:44:48;14.60;90.80
7494;DHT22;3788;49.902;8.590;2023-03-25T12:47:22;14.50;90.60
7494;DHT22;3788;49.902;8.590;2023-03-25T12:50:19;14.50;91.20
7494;DHT22;3788;49.902;8.590;2023-03-25T12:52:54;14.50;91.00
7494;DHT22;3788;49.902;8.590;2023-03-25T12:55:42;14.30;90.00
7494;DHT22;3788;49.902;8.590;2023-03-25T12:58:29;14.20;88.60
7494;DHT22;3788;49.902;8.590;2023-03-25T13:01:07;14.10;88.00
7494;DHT22;3788;49.902;8.590;2023-03-25T13:03:54;14.00;89.50
7494;DHT22;3788;49.902;8.590;2023-03-25T13:06:28;13.90;90.80
7494;DHT22;3788;49.902;8.590;2023-03-25T13:09:02;13.60;93.90
7494;DHT22;3788;49.902;8.590;2023-03-25T13:11:36;13.10;94.90
7494;DHT22;3788;49.902;8.590;2023-03-25T13:14:08;12.60;95.00
7494;DHT22;3788;49.902;8.590;2023-03-25T13:16:38;12.30;94.40
7494;DHT22;3788;49.902;8.590;2023-03-25T13:19:10;12.20;94.00
7494;DHT22;3788;49.902;8.590;2023-03-25T13:21:40;12.30;94.60
7494;DHT22;3788;49.902;8.590;2023-03-25T13:24:11;12.40;94.10
7494;DHT22;3788;49.902;8.590;2023-03-25T13:26:42;12.70;93.70
7494;DHT22;3788;49.902;8.590;2023-03-25T13:29:17;12.80;94.40
7494;DHT22;3788;49.902;8.590;2023-03-25T13:31:47;13.00;94.10
7494;DHT22;3788;49.902;8.590;2023-03-25T13:34:19;13.20;92.60
7494;DHT22;3788;49.902;8.590;2023-03-25T13:36:52;13.40;92.40
7494;DHT22;3788;49.902;8.590;2023-03-25T13:39:26;13.50;90.40
7494;DHT22;3788;49.902;8.590;2023-03-25T13:41:59;13.70;88.10
7494;DHT22;3788;49.902;8.590;2023-03-25T13:44:34;13.90;85.50
7494;DHT22;3788;49.902;8.590;2023-03-25T13:47:05;14.00;85.10
7494;DHT22;3788;49.902;8.590;2023-03-25T13:49:38;14.10;85.70
7494;DHT22;3788;49.902;8.590;2023-03-25T13:52:07;14.10;85.50
7494;DHT22;3788;49.902;8.590;2023-03-25T13:54:36;14.00;85.20
7494;DHT22;3788;49.902;8.590;2023-03-25T14:00:33;14.10;86.20
7494;DHT22;3788;49.902;8.590;2023-03-25T14:03:19;14.20;86.30
7494;DHT22;3788;49.902;8.590;2023-03-25T14:06:02;14.40;87.70
7494;DHT22;3788;49.902;8.590;2023-03-25T14:08:59;14.50;85.90
7494;DHT22;3788;49.902;8.590;2023-03-25T14:11:36;14.60;85.90
7494;DHT22;3788;49.902;8.590;2023-03-25T14:14:08;14.70;83.10
7494;DHT22;3788;49.902;8.590;2023-03-25T14:16:41;14.70;82.50
7494;DHT22;3788;49.902;8.590;2023-03-25T14:19:11;14.90;81.90
7494;DHT22;3788;49.902;8.590;2023-03-25T14:21:41;15.00;80.30
7494;DHT22;3788;49.902;8.590;2023-03-25T14:24:11;15.00;78.90
7494;DHT22;3788;49.902;8.590;2023-03-25T14:26:46;15.20;77.60
7494;DHT22;3788;49.902;8.590;2023-03-25T14:29:23;15.20;78.20
7494;DHT22;3788;49.902;8.590;2023-03-25T14:32:02;15.20;79.10
7494;DHT22;3788;49.902;8.590;2023-03-25T14:34:29;15.30;77.30
7494;DHT22;3788;49.902;8.590;2023-03-25T14:37:14;15.40;77.30
7494;DHT22;3788;49.902;8.590;2023-03-25T14:39:42;15.30;74.00
7494;DHT22;3788;49.902;8.590;2023-03-25T14:42:22;15.20;75.10
7494;DHT22;3788;49.902;8.590;2023-03-25T14:44:50;15.10;73.80
7494;DHT22;3788;49.902;8.590;2023-03-25T14:47:29;15.10;73.70
7494;DHT22;3788;49.902;8.590;2023-03-25T14:50:04;15.10;74.10
7494;DHT22;3788;49.902;8.590;2023-03-25T14:52:37;15.10;72.60
7494;DHT22;3788;49.902;8.590;2023-03-25T14:55:08;15.00;74.40
7494;DHT22;3788;49.902;8.590;2023-03-25T14:57:39;15.00;74.60
7494;DHT22;3788;49.902;8.590;2023-03-25T15:00:08;15.00;74.00
7494;DHT22;3788;49.902;8.590;2023-03-25T15:02:41;14.90;74.90
7494;DHT22;3788;49.902;8.590;2023-03-25T15:05:16;14.90;75.10
7494;DHT22;3788;49.902;8.590;2023-03-25T15:07:46;14.90;75.50
7494;DHT22;3788;49.902;8.590;2023-03-25T15:10:24;14.90;75.60
7494;DHT22;3788;49.902;8.590;2023-03-25T15:12:54;14.90;75.50
7494;DHT22;3788;49.902;8.590;2023-03-25T15:15:29;14.90;76.30
7494;DHT22;3788;49.902;8.590;2023-03-25T15:17:58;14.80;75.40
7494;DHT22;3788;49.902;8.590;2023-03-25T15:20:30;14.80;76.30
7494;DHT22;3788;49.902;8.590;2023-03-25T15:23:29;14.80;76.20
7494;DHT22;3788;49.902;8.590;2023-03-25T15:25:56;14.80;77.00
7494;DHT22;3788;49.902;8.590;2023-03-25T15:28:33;14.70;76.20
7494;DHT22;3788;49.902;8.590;2023-03-25T15:31:15;14.70;75.80
7494;DHT22;3788;49.902;8.590;2023-03-25T15:34:01;14.70;75.60
7494;DHT22;3788;49.902;8.590;2023-03-25T15:36:49;14.70;74.00
7494;DHT22;3788;49.902;8.590;2023-03-25T15:39:28;14.70;72.30
7494;DHT22;3788;49.902;8.590;2023-03-25T15:45:24;14.70;72.90
7494;DHT22;3788;49.902;8.590;2023-03-25T15:48:09;14.70;70.20
7494;DHT22;3788;49.902;8.590;2023-03-25T15:50:56;14.80;70.70
7494;DHT22;3788;49.902;8.590;2023-03-25T15:53:38;14.80;69.30
7494;DHT22;3788;49.902;8.590;2023-03-25T15:56:10;14.70;69.80
7494;DHT22;3788;49.902;8.590;2023-03-25T15:58:42;14.80;69.50
7494;DHT22;3788;49.902;8.590;2023-03-25T16:01:17;14.70;70.10
7494;DHT22;3788;49.902;8.590;2023-03-25T16:03:51;14.80;70.20
7494;DHT22;3788;49.902;8.590;2023-03-25T16:06:21;14.90;70.30
7494;DHT22;3788;49.902;8.590;2023-03-25T16:08:49;14.90;70.30
7494;DHT22;3788;49.902;8.590;2023-03-25T16:11:23;14.90;70.00
7494;DHT22;3788;49.902;8.590;2023-03-25T16:14:01;15.00;70.90
7494;DHT22;3788;49.902;8.590;2023-03-25T16:16:29;14.90;70.30
7494;DHT22;3788;49.902;8.590;2023-03-25T16:19:00;14.90;71.30
7494;DHT22;3788;49.902;8.590;2023-03-25T16:21:30;14.80;71.20
7494;DHT22;3788;49.902;8.590;2023-03-25T16:24:01;14.60;72.20
7494;DHT22;3788;49.902;8.590;2023-03-25T16:26:33;14.50;73.30
7494;DHT22;3788;49.902;8.590;2023-03-25T16:29:06;14.40;73.40
7494;DHT22;3788;49.902;8.590;2023-03-25T16:31:33;14.30;73.00
7494;DHT22;3788;49.902;8.590;2023-03-25T16:34:08;14.20;74.00
7494;DHT22;3788;49.902;8.590;2023-03-25T16:36:41;14.10;74.90
7494;DHT22;3788;49.902;8.590;2023-03-25T16:39:10;14.10;74.20
7494;DHT22;3788;49.902;8.590;2023-03-25T16:41:41;14.10;73.90